sensor_id;sensor_type;location;lat;lon;timestamp;temperature;humidity
14771;DHT22;7477;45.222;5.688;2023-04-15T00:00:46;9.90;99.90
14771;DHT22;7477;45.222;5.688;2023-04-15T00:04:05;11.30;99.90
14771;DHT22;7477;45.222;5.688;2023-04-15T00:07:24;9.90;99.90
14771;DHT22;7477;45.222;5.688;2023-04-15T00:10:43;9.90;99.90
14771;DHT22;7477;45.222;5.688;2023-04-15T00:14:04;9.90;99.90
14771;DHT22;7477;45.222;5.688;2023-04-15T00:17:24;9.90;99.90
14771;DHT22;7477;45.222;5.688;2023-04-15T00:20:43;9.90;99.90
14771;DHT22;7477;45.222;5.688;2023-04-15T00:24:03;9.90;99.90
14771;DHT22;7477;45.222;5.688;2023-04-15T00:27:23;9.90;99.90
14771;DHT22;7477;45.222;5.688;2023-04-15T00:30:43;9.90;99.90
14771;DHT22;7477;45.222;5.688;2023-04-15T00:34:02;9.90;99.90
14771;DHT22;7477;45.222;5.688;2023-04-15T00:37:21;9.80;99.90
14771;DHT22;7477;45.222;5.688;2023-04-15T00:40:41;9.80;99.90
14771;DHT22;7477;45.222;5.688;2023-04-15T00:44:00;9.80;99.90
14771;DHT22;7477;45.222;5.688;2023-04-15T00:47:20;9.80;99.90
14771;DHT22;7477;45.222;5.688;2023-04-15T00:50:40;9.80;99.90
14771;DHT22;7477;45.222;5.688;2023-04-15T00:54:00;9.80;99.90
14771;DHT22;7477;45.222;5.688;2023-04-15T00:57:20;9.80;99.90
14771;DHT22;7477;45.222;5.688;2023-04-15T01:00:42;9.80;99.90
14771;DHT22;7477;45.222;5.688;2023-04-15T01:04:01;9.80;99.90
14771;DHT22;7477;45.222;5.688;2023-04-15T01:07:21;9.80;99.90
14771;DHT22;7477;45.222;5.688;2023-04-15T01:10:40;9.80;99.90
14771;DHT22;7477;45.222;5.688;2023-04-15T01:14:00;9.80;99.90
14771;DHT22;7477;45.222;5.688;2023-04-15T01:17:20;9.80;99.90
14771;DHT22;7477;45.222;5.688;2023-04-15T01:20:40;9.80;99.90
14771;DHT22;7477;45.222;5.688;2023-04-15T01:24:00;9.80;99.90
14771;DHT22;7477;45.222;5.688;2023-04-15T01:27:19;9.80;99.90
14771;DHT22;7477;45.222;5.688;2023-04-15T01:30:39;9.80;99.90
14771;DHT22;7477;45.222;5.688;2023-04-15T01:33:59;9.80;99.90
14771;DHT22;7477;45.222;5.688;2023-04-15T01:37:19;9.80;99.90
14771;DHT22;7477;45.222;5.688;2023-04-15T01:40:39;9.80;99.90
14771;DHT22;7477;45.222;5.688;2023-04-15T01:43:59;9.80;99.90
14771;DHT22;7477;45.222;5.688;2023-04-15T01:47:19;9.80;99.90
14771;DHT22;7477;45.222;5.688;2023-04-15T01:50:38;9.80;99.90
14771;DHT22;7477;45.222;5.688;2023-04-15T01:53:57;9.80;99.90
14771;DHT22;7477;45.222;5.688;2023-04-15T01:57:17;9.70;99.90
14771;DHT22;7477;45.222;5.688;2023-04-15T02:00:36;9.80;99.90
14771;DHT22;7477;45.222;5.688;2023-04-15T02:03:56;9.70;99.90
14771;DHT22;7477;45.222;5.688;2023-04-15T02:07:15;9.70;99.90
14771;DHT22;7477;45.222;5.688;2023-04-15T02:10:34;9.70;99.90
14771;DHT22;7477;45.222;5.688;2023-04-15T02:13:54;9.70;99.90
14771;DHT22;7477;45.222;5.688;2023-04-15T02:17:14;9.70;99.90
14771;DHT22;7477;45.222;5.688;2023-04-15T02:20:33;9.70;99.90
14771;DHT22;7477;45.222;5.688;2023-04-15T02:23:54;9.70;99.90
14771;DHT22;7477;45.222;5.688;2023-04-15T02:27:17;9.70;99.90
14771;DHT22;7477;45.222;5.688;2023-04-15T02:30:36;9.70;99.90
14771;DHT22;7477;45.222;5.688;2023-04-15T02:33:55;9.70;99.90
14771;DHT22;7477;45.222;5.688;2023-04-15T02:37:14;9.70;99.90
14771;DHT22;7477;45.222;5.688;2023-04-15T02:40:34;9.70;99.90
14771;DHT22;7477;45.222;5.688;2023-04-15T02:43:53;9.70;99.90
14771;DHT22;7477;45.222;5.688;2023-04-15T02:47:12;9.70;99.90
14771;DHT22;7477;45.222;5.688;2023-04-15T02:50:33;9.70;99.90
14771;DHT22;7477;45.222;5.688;2023-04-15T02:53:52;9.80;99.90
14771;DHT22;7477;45.222;5.688;2023-04-15T02:57:12;9.70;99.90
14771;DHT22;7477;45.222;5.688;2023-04-15T03:00:31;9.70;99.90
14771;DHT22;7477;45.222;5.688;2023-04-15T03:03:50;9.70;99.90
14771;DHT22;7477;45.222;5.688;2023-04-15T03:07:09;9.70;99.90
14771;DHT22;7477;45.222;5.688;2023-04-15T03:10:28;9.70;99.90
14771;DHT22;7477;45.222;5.688;2023-04-15T03:13:48;9.70;99.90
14771;DHT22;7477;45.222;5.688;2023-04-15T03:17:07;9.70;99.90
14771;DHT22;7477;45.222;5.688;2023-04-15T03:20:26;9.70;99.90
14771;DHT22;7477;45.222;5.688;2023-04-15T03:23:47;9.70;99.90
14771;DHT22;7477;45.222;5.688;2023-04-15T03:27:07;9.70;99.90
14771;DHT22;7477;45.222;5.688;2023-04-15T03:30:26;9.70;99.90
14771;DHT22;7477;45.222;5.688;2023-04-15T03:33:46;9.70;99.90
14771;DHT22;7477;45.222;5.688;2023-04-15T03:37:05;9.60;99.90
14771;DHT22;7477;45.222;5.688;2023-04-15T03:40:25;9.60;99.90
14771;DHT22;7477;45.222;5.688;2023-04-15T03:43:44;9.60;99.90
14771;DHT22;7477;45.222;5.688;2023-04-15T03:47:03;9.60;99.90
14771;DHT22;7477;45.222;5.688;2023-04-15T03:50:22;9.60;99.90
14771;DHT22;7477;45.222;5.688;2023-04-15T03:53:42;9.60;99.90
14771;DHT22;7477;45.222;5.688;2023-04-15T03:57:01;9.60;99.90
14771;DHT22;7477;45.222;5.688;2023-04-15T04:00:21;9.60;99.90
14771;DHT22;7477;45.222;5.688;2023-04-15T04:03:40;9.60;99.90
14771;DHT22;7477;45.222;5.688;2023-04-15T04:06:59;9.60;99.90
14771;DHT22;7477;45.222;5.688;2023-04-15T04:10:18;9.60;99.90
14771;DHT22;7477;45.222;5.688;2023-04-15T04:13:38;9.60;99.90
14771;DHT22;7477;45.222;5.688;2023-04-15T04:16:57;9.60;99.90
14771;DHT22;7477;45.222;5.688;2023-04-15T04:20:16;9.60;99.90
14771;DHT22;7477;45.222;5.688;2023-04-15T04:23:36;9.60;99.90
14771;DHT22;7477;45.222;5.688;2023-04-15T04:26:55;9.60;99.90
14771;DHT22;7477;45.222;5.688;2023-04-15T04:30:15;9.50;99.90
14771;DHT22;7477;45.222;5.688;2023-04-15T04:33:35;9.50;99.90
14771;DHT22;7477;45.222;5.688;2023-04-15T04:36:54;9.50;99.90
14771;DHT22;7477;45.222;5.688;2023-04-15T04:40:13;9.60;99.90
14771;DHT22;7477;45.222;5.688;2023-04-15T04:43:33;9.60;99.90
14771;DHT22;7477;45.222;5.688;2023-04-15T04:46:52;9.60;99.90
14771;DHT22;7477;45.222;5.688;2023-04-15T04:50:12;9.50;99.90
14771;DHT22;7477;45.222;5.688;2023-04-15T04:53:31;9.60;99.90
14771;DHT22;7477;45.222;5.688;2023-04-15T04:56:50;9.50;99.90
14771;DHT22;7477;45.222;5.688;2023-04-15T05:00:09;9.50;99.90
14771;DHT22;7477;45.222;5.688;2023-04-15T05:03:28;9.50;99.90
14771;DHT22;7477;45.222;5.688;2023-04-15T05:06:48;9.50;99.90
14771;DHT22;7477;45.222;5.688;2023-04-15T05:10:07;9.50;99.90
14771;DHT22;7477;45.222;5.688;2023-04-15T05:13:26;9.50;99.90
14771;DHT22;7477;45.222;5.688;2023-04-15T05:16:45;9.50;99.90
14771;DHT22;7477;45.222;5.688;2023-04-15T05:20:05;9.50;99.90
14771;DHT22;7477;45.222;5.688;2023-04-15T05:23:25;9.50;99.90
14771;DHT22;7477;45.222;5.688;2023-04-15T05:26:44;9.40;99.90
14771;DHT22;7477;45.222;5.688;2023-04-15T05:30:03;9.50;99.90
14771;DHT22;7477;45.222;5.688;2023-04-15T05:33:23;9.50;99.90
14771;DHT22;7477;45.222;5.688;2023-04-15T05:36:43;9.40;99.90
14771;DHT22;7477;45.222;5.688;2023-04-15T05:40:02;9.50;99.90
14771;DHT22;7477;45.222;5.688;2023-04-15T05:43:22;9.50;99.90
14771;DHT22;7477;45.222;5.688;2023-04-15T05:46:41;9.50;99.90
14771;DHT22;7477;45.222;5.688;2023-04-15T05:50:01;9.50;99.90
14771;DHT22;7477;45.222;5.688;2023-04-15T05:53:20;9.50;99.90
14771;DHT22;7477;45.222;5.688;2023-04-15T05:56:39;9.50;99.90
14771;DHT22;7477;45.222;5.688;2023-04-15T05:59:59;9.50;99.90
14771;DHT22;7477;45.222;5.688;2023-04-15T06:03:18;9.50;99.90
14771;DHT22;7477;45.222;5.688;2023-04-15T06:06:38;9.50;99.90
14771;DHT22;7477;45.222;5.688;2023-04-15T06:09:58;9.50;99.90
14771;DHT22;7477;45.222;5.688;2023-04-15T06:13:17;9.50;99.90
14771;DHT22;7477;45.222;5.688;2023-04-15T06:16:36;9.50;99.90
14771;DHT22;7477;45.222;5.688;2023-04-15T06:19:55;9.50;99.90
14771;DHT22;7477;45.222;5.688;2023-04-15T06:23:15;9.50;99.90
14771;DHT22;7477;45.222;5.688;2023-04-15T06:26:34;9.50;99.90
14771;DHT22;7477;45.222;5.688;2023-04-15T06:29:53;9.60;99.90
14771;DHT22;7477;45.222;5.688;2023-04-15T06:33:12;9.60;99.90
14771;DHT22;7477;45.222;5.688;2023-04-15T06:36:32;9.60;99.90
14771;DHT22;7477;45.222;5.688;2023-04-15T06:39:51;9.60;99.90
14771;DHT22;7477;45.222;5.688;2023-04-15T06:43:10;9.60;99.90
14771;DHT22;7477;45.222;5.688;2023-04-15T06:46:30;9.60;99.90
14771;DHT22;7477;45.222;5.688;2023-04-15T06:49:49;9.60;99.90
14771;DHT22;7477;45.222;5.688;2023-04-15T06:53:08;9.60;99.90
14771;DHT22;7477;45.222;5.688;2023-04-15T06:56:28;9.60;99.90
14771;DHT22;7477;45.222;5.688;2023-04-15T06:59:47;9.60;99.90
14771;DHT22;7477;45.222;5.688;2023-04-15T07:03:07;9.60;99.90
14771;DHT22;7477;45.222;5.688;2023-04-15T07:06:29;9.50;99.90
14771;DHT22;7477;45.222;5.688;2023-04-15T07:09:48;9.50;99.90
14771;DHT22;7477;45.222;5.688;2023-04-15T07:13:07;9.50;99.90
14771;DHT22;7477;45.222;5.688;2023-04-15T07:16:28;9.60;99.90
14771;DHT22;7477;45.222;5.688;2023-04-15T07:19:47;9.50;99.90
14771;DHT22;7477;45.222;5.688;2023-04-15T07:23:06;9.60;99.90
14771;DHT22;7477;45.222;5.688;2023-04-15T07:26:26;9.60;99.90
14771;DHT22;7477;45.222;5.688;2023-04-15T07:29:45;9.70;99.90
14771;DHT22;7477;45.222;5.688;2023-04-15T07:33:05;9.70;99.90
14771;DHT22;7477;45.222;5.688;2023-04-15T07:36:25;9.80;99.90
14771;DHT22;7477;45.222;5.688;2023-04-15T07:39:44;9.80;99.90
14771;DHT22;7477;45.222;5.688;2023-04-15T07:43:03;9.80;99.90
14771;DHT22;7477;45.222;5.688;2023-04-15T07:46:22;9.60;99.90
14771;DHT22;7477;45.222;5.688;2023-04-15T07:49:42;9.40;99.90
14771;DHT22;7477;45.222;5.688;2023-04-15T07:53:02;9.30;99.90
14771;DHT22;7477;45.222;5.688;2023-04-15T07:56:21;9.20;99.90
14771;DHT22;7477;45.222;5.688;2023-04-15T07:59:40;9.10;99.90
14771;DHT22;7477;45.222;5.688;2023-04-15T08:02:59;8.70;99.90
14771;DHT22;7477;45.222;5.688;2023-04-15T08:06:19;8.60;99.90
14771;DHT22;7477;45.222;5.688;2023-04-15T08:09:38;8.60;99.90
14771;DHT22;7477;45.222;5.688;2023-04-15T08:12:57;9.80;99.90
14771;DHT22;7477;45.222;5.688;2023-04-15T08:19:40;10.10;99.90
14771;DHT22;7477;45.222;5.688;2023-04-15T08:23:00;9.90;99.90
14771;DHT22;7477;45.222;5.688;2023-04-15T08:26:20;9.80;99.90
14771;DHT22;7477;45.222;5.688;2023-04-15T08:29:39;9.90;99.90
14771;DHT22;7477;45.222;5.688;2023-04-15T08:32:59;10.40;99.90
14771;DHT22;7477;45.222;5.688;2023-04-15T08:36:19;10.20;99.90
14771;DHT22;7477;45.222;5.688;2023-04-15T08:39:38;10.30;99.90
14771;DHT22;7477;45.222;5.688;2023-04-15T08:42:58;10.50;99.90
14771;DHT22;7477;45.222;5.688;2023-04-15T08:46:19;9.80;99.90
14771;DHT22;7477;45.222;5.688;2023-04-15T08:49:39;9.10;99.90
14771;DHT22;7477;45.222;5.688;2023-04-15T08:53:00;9.00;99.90
14771;DHT22;7477;45.222;5.688;2023-04-15T08:56:23;8.90;99.90
14771;DHT22;7477;45.222;5.688;2023-04-15T08:59:43;8.90;99.90
14771;DHT22;7477;45.222;5.688;2023-04-15T09:03:07;8.80;99.90
14771;DHT22;7477;45.222;5.688;2023-04-15T09:06:27;9.00;99.90
14771;DHT22;7477;45.222;5.688;2023-04-15T09:09:47;9.10;99.90
14771;DHT22;7477;45.222;5.688;2023-04-15T09:13:07;9.20;99.90
14771;DHT22;7477;45.222;5.688;2023-04-15T09:16:26;9.30;99.90
14771;DHT22;7477;45.222;5.688;2023-04-15T09:19:46;9.50;99.90
14771;DHT22;7477;45.222;5.688;2023-04-15T09:23:15;9.50;99.90
14771;DHT22;7477;45.222;5.688;2023-04-15T09:26:36;9.40;99.90
14771;DHT22;7477;45.222;5.688;2023-04-15T09:29:58;9.50;99.90
14771;DHT22;7477;45.222;5.688;2023-04-15T09:33:17;9.50;99.90
14771;DHT22;7477;45.222;5.688;2023-04-15T09:36:56;9.60;99.90
14771;DHT22;7477;45.222;5.688;2023-04-15T09:40:33;9.70;99.90
14771;DHT22;7477;45.222;5.688;2023-04-15T09:43:53;9.70;99.90
14771;DHT22;7477;45.222;5.688;2023-04-15T09:47:31;9.50;99.90
14771;DHT22;7477;45.222;5.688;2023-04-15T09:50:51;9.10;99.90
14771;DHT22;7477;45.222;5.688;2023-04-15T09:54:12;8.60;99.90
14771;DHT22;7477;45.222;5.688;2023-04-15T09:57:34;8.40;99.90
14771;DHT22;7477;45.222;5.688;2023-04-15T10:00:56;8.20;99.90
14771;DHT22;7477;45.222;5.688;2023-04-15T10:04:16;8.20;99.90
14771;DHT22;7477;45.222;5.688;2023-04-15T10:07:36;8.20;99.90
14771;DHT22;7477;45.222;5.688;2023-04-15T10:10:56;8.20;99.90
14771;DHT22;7477;45.222;5.688;2023-04-15T10:14:16;8.30;99.90
14771;DHT22;7477;45.222;5.688;2023-04-15T10:17:36;8.50;99.90
14771;DHT22;7477;45.222;5.688;2023-04-15T10:20:59;8.40;99.90
14771;DHT22;7477;45.222;5.688;2023-04-15T10:24:19;8.40;99.90
14771;DHT22;7477;45.222;5.688;2023-04-15T10:27:39;8.30;99.90
14771;DHT22;7477;45.222;5.688;2023-04-15T10:31:00;8.30;99.90
14771;DHT22;7477;45.222;5.688;2023-04-15T10:34:21;8.20;99.90
14771;DHT22;7477;45.222;5.688;2023-04-15T10:37:41;8.40;99.90
14771;DHT22;7477;45.222;5.688;2023-04-15T10:41:20;8.30;99.90
14771;DHT22;7477;45.222;5.688;2023-04-15T10:44:42;8.60;99.90
14771;DHT22;7477;45.222;5.688;2023-04-15T10:48:03;8.60;99.90
14771;DHT22;7477;45.222;5.688;2023-04-15T10:51:30;8.70;99.90
14771;DHT22;7477;45.222;5.688;2023-04-15T10:55:22;8.80;99.90
14771;DHT22;7477;45.222;5.688;2023-04-15T10:58:43;8.90;99.90
14771;DHT22;7477;45.222;5.688;2023-04-15T11:02:05;9.00;99.90
14771;DHT22;7477;45.222;5.688;2023-04-15T11:08:59;9.00;99.90
14771;DHT22;7477;45.222;5.688;2023-04-15T11:12:21;9.30;99.90
14771;DHT22;7477;45.222;5.688;2023-04-15T11:15:45;9.50;99.90
14771;DHT22;7477;45.222;5.688;2023-04-15T11:19:05;9.70;99.90
14771;DHT22;7477;45.222;5.688;2023-04-15T11:22:24;9.80;99.90
14771;DHT22;7477;45.222;5.688;2023-04-15T11:25:44;9.80;99.90
14771;DHT22;7477;45.222;5.688;2023-04-15T11:29:04;9.80;99.90
14771;DHT22;7477;45.222;5.688;2023-04-15T11:32:23;9.90;99.90
14771;DHT22;7477;45.222;5.688;2023-04-15T11:35:42;9.80;99.90
14771;DHT22;7477;45.222;5.688;2023-04-15T11:39:03;9.80;99.90
14771;DHT22;7477;45.222;5.688;2023-04-15T11:42:24;9.60;99.90
14771;DHT22;7477;45.222;5.688;2023-04-15T11:45:55;9.30;99.90
14771;DHT22;7477;45.222;5.688;2023-04-15T11:49:28;8.10;99.90
14771;DHT22;7477;45.222;5.688;2023-04-15T11:52:56;7.70;99.90
14771;DHT22;7477;45.222;5.688;2023-04-15T11:56:25;7.80;99.90
14771;DHT22;7477;45.222;5.688;2023-04-15T11:59:45;7.70;99.90
14771;DHT22;7477;45.222;5.688;2023-04-15T12:03:40;7.70;99.90
14771;DHT22;7477;45.222;5.688;2023-04-15T12:07:04;7.90;99.90
14771;DHT22;7477;45.222;5.688;2023-04-15T12:10:24;7.90;99.90
14771;DHT22;7477;45.222;5.688;2023-04-15T12:13:47;7.90;99.90
14771;DHT22;7477;45.222;5.688;2023-04-15T12:17:09;7.80;99.90
14771;DHT22;7477;45.222;5.688;2023-04-15T12:20:30;7.90;99.90
14771;DHT22;7477;45.222;5.688;2023-04-15T12:23:50;7.80;99.90
14771;DHT22;7477;45.222;5.688;2023-04-15T12:27:11;7.70;99.90
14771;DHT22;7477;45.222;5.688;2023-04-15T12:30:31;7.70;99.90
14771;DHT22;7477;45.222;5.688;2023-04-15T12:33:50;7.40;99.90
14771;DHT22;7477;45.222;5.688;2023-04-15T12:37:11;7.70;99.90
14771;DHT22;7477;45.222;5.688;2023-04-15T12:40:31;7.90;99.90
14771;DHT22;7477;45.222;5.688;2023-04-15T12:43:50;8.10;99.90
14771;DHT22;7477;45.222;5.688;2023-04-15T12:47:11;8.20;99.90
14771;DHT22;7477;45.222;5.688;2023-04-15T12:50:30;8.20;99.90
14771;DHT22;7477;45.222;5.688;2023-04-15T12:53:50;8.40;99.90
14771;DHT22;7477;45.222;5.688;2023-04-15T12:57:09;8.60;99.90
14771;DHT22;7477;45.222;5.688;2023-04-15T13:00:28;8.60;99.90
14771;DHT22;7477;45.222;5.688;2023-04-15T13:03:48;8.40;99.90
14771;DHT22;7477;45.222;5.688;2023-04-15T13:07:08;8.40;99.90
14771;DHT22;7477;45.222;5.688;2023-04-15T13:10:28;8.40;99.90
14771;DHT22;7477;45.222;5.688;2023-04-15T13:13:47;8.20;99.90
14771;DHT22;7477;45.222;5.688;2023-04-15T13:17:07;8.20;99.90
14771;DHT22;7477;45.222;5.688;2023-04-15T13:20:28;8.00;99.90
14771;DHT22;7477;45.222;5.688;2023-04-15T13:23:48;8.00;99.90
14771;DHT22;7477;45.222;5.688;2023-04-15T13:27:08;8.00;99.90
14771;DHT22;7477;45.222;5.688;2023-04-15T13:30:28;7.90;99.90
14771;DHT22;7477;45.222;5.688;2023-04-15T13:33:47;7.70;99.90
14771;DHT22;7477;45.222;5.688;2023-04-15T13:37:07;7.80;99.90
14771;DHT22;7477;45.222;5.688;2023-04-15T13:40:26;7.90;99.90
14771;DHT22;7477;45.222;5.688;2023-04-15T13:43:46;7.70;99.90
14771;DHT22;7477;45.222;5.688;2023-04-15T13:47:05;7.70;99.90
14771;DHT22;7477;45.222;5.688;2023-04-15T13:50:26;7.70;99.90
14771;DHT22;7477;45.222;5.688;2023-04-15T13:53:45;7.80;99.90
14771;DHT22;7477;45.222;5.688;2023-04-15T13:57:05;7.70;99.90
14771;DHT22;7477;45.222;5.688;2023-04-15T14:00:25;7.80;99.90
14771;DHT22;7477;45.222;5.688;2023-04-15T14:03:44;7.90;99.90
14771;DHT22;7477;45.222;5.688;2023-04-15T14:07:04;7.80;99.90
14771;DHT22;7477;45.222;5.688;2023-04-15T14:10:23;7.90;99.90
14771;DHT22;7477;45.222;5.688;2023-04-15T14:13:42;7.90;99.90
14771;DHT22;7477;45.222;5.688;2023-04-15T14:17:02;7.90;99.90
14771;DHT22;7477;45.222;5.688;2023-04-15T14:20:22;7.90;99.90
14771;DHT22;7477;45.222;5.688;2023-04-15T14:23:41;7.80;99.90
14771;DHT22;7477;45.222;5.688;2023-04-15T14:27:01;7.90;99.90
14771;DHT22;7477;45.222;5.688;2023-04-15T14:30:21;7.80;99.90
14771;DHT22;7477;45.222;5.688;2023-04-15T14:33:40;7.80;99.90
14771;DHT22;7477;45.222;5.688;2023-04-15T14:36:59;7.70;99.90
14771;DHT22;7477;45.222;5.688;2023-04-15T14:40:18;7.70;99.90
14771;DHT22;7477;45.222;5.688;2023-04-15T14:43:38;7.80;99.90
14771;DHT22;7477;45.222;5.688;2023-04-15T14:46:57;7.80;99.90
14771;DHT22;7477;45.222;5.688;2023-04-15T14:50:17;7.80;99.90
14771;DHT22;7477;45.222;5.688;2023-04-15T14:53:37;7.80;99.90
14771;DHT22;7477;45.222;5.688;2023-04-15T14:56:56;7.80;99.90
14771;DHT22;7477;45.222;5.688;2023-04-15T15:00:15;7.90;99.90
14771;DHT22;7477;45.222;5.688;2023-04-15T15:03:34;7.90;99.90
14771;DHT22;7477;45.222;5.688;2023-04-15T15:06:54;7.80;99.90
14771;DHT22;7477;45.222;5.688;2023-04-15T15:10:13;7.70;99.90
14771;DHT22;7477;45.222;5.688;2023-04-15T15:13:33;7.60;99.90
14771;DHT22;7477;45.222;5.688;2023-04-15T15:16:53;7.70;99.90
14771;DHT22;7477;45.222;5.688;2023-04-15T15:20:12;7.70;99.90
14771;DHT22;7477;45.222;5.688;2023-04-15T15:23:31;7.70;99.90
14771;DHT22;7477;45.222;5.688;2023-04-15T15:26:50;7.70;99.90
14771;DHT22;7477;45.222;5.688;2023-04-15T15:30:10;7.70;99.90
14771;DHT22;7477;45.222;5.688;2023-04-15T15:33:30;7.70;99.90
14771;DHT22;7477;45.222;5.688;2023-04-15T15:36:49;7.70;99.90
14771;DHT22;7477;45.222;5.688;2023-04-15T15:40:09;7.80;99.90
14771;DHT22;7477;45.222;5.688;2023-04-15T15:43:30;7.70;99.90
14771;DHT22;7477;45.222;5.688;2023-04-15T15:46:49;7.70;99.90
14771;DHT22;7477;45.222;5.688;2023-04-15T15:50:09;7.70;99.90
14771;DHT22;7477;45.222;5.688;2023-04-15T15:53:28;7.80;99.90
14771;DHT22;7477;45.222;5.688;2023-04-15T15:56:48;7.70;99.90
14771;DHT22;7477;45.222;5.688;2023-04-15T16:00:08;7.70;99.90
14771;DHT22;7477;45.222;5.688;2023-04-15T16:03:28;7.70;99.90
14771;DHT22;7477;45.222;5.688;2023-04-15T16:06:47;7.70;99.90
14771;DHT22;7477;45.222;5.688;2023-04-15T16:10:07;7.80;99.90
14771;DHT22;7477;45.222;5.688;2023-04-15T16:13:26;7.80;99.90
14771;DHT22;7477;45.222;5.688;2023-04-15T16:16:46;7.70;99.90
14771;DHT22;7477;45.222;5.688;2023-04-15T16:20:06;7.70;99.90
14771;DHT22;7477;45.222;5.688;2023-04-15T16:23:25;7.80;99.90
14771;DHT22;7477;45.222;5.688;2023-04-15T16:26:45;7.70;99.90
14771;DHT22;7477;45.222;5.688;2023-04-15T16:30:04;7.60;99.90
14771;DHT22;7477;45.222;5.688;2023-04-15T16:33:24;7.70;99.90
14771;DHT22;7477;45.222;5.688;2023-04-15T16:36:43;7.70;99.90
14771;DHT22;7477;45.222;5.688;2023-04-15T16:40:03;7.70;99.90
14771;DHT22;7477;45.222;5.688;2023-04-15T16:43:23;7.70;99.90
14771;DHT22;7477;45.222;5.688;2023-04-15T16:46:43;7.70;99.90
14771;DHT22;7477;45.222;5.688;2023-04-15T16:50:02;7.60;99.90
14771;DHT22;7477;45.222;5.688;2023-04-15T16:53:22;7.70;99.90
14771;DHT22;7477;45.222;5.688;2023-04-15T16:56:41;7.70;99.90
14771;DHT22;7477;45.222;5.688;2023-04-15T17:00:01;7.70;99.90
14771;DHT22;7477;45.222;5.688;2023-04-15T17:03:20;7.80;99.90
14771;DHT22;7477;45.222;5.688;2023-04-15T17:06:39;7.80;99.90
14771;DHT22;7477;45.222;5.688;2023-04-15T17:09:58;7.70;99.90
14771;DHT22;7477;45.222;5.688;2023-04-15T17:13:18;7.70;99.90
14771;DHT22;7477;45.222;5.688;2023-04-15T17:16:37;7.70;99.90
14771;DHT22;7477;45.222;5.688;2023-04-15T17:19:56;8.10;99.90
14771;DHT22;7477;45.222;5.688;2023-04-15T17:23:15;7.70;99.90
14771;DHT22;7477;45.222;5.688;2023-04-15T17:26:35;7.70;99.90
14771;DHT22;7477;45.222;5.688;2023-04-15T17:29:55;7.70;99.90
14771;DHT22;7477;45.222;5.688;2023-04-15T17:33:14;7.70;99.90
14771;DHT22;7477;45.222;5.688;2023-04-15T17:36:33;7.70;99.90
14771;DHT22;7477;45.222;5.688;2023-04-15T17:39:52;7.70;99.90
14771;DHT22;7477;45.222;5.688;2023-04-15T17:43:12;7.70;99.90
14771;DHT22;7477;45.222;5.688;2023-04-15T17:46:31;7.70;99.90
14771;DHT22;7477;45.222;5.688;2023-04-15T17:49:50;7.70;99.90
14771;DHT22;7477;45.222;5.688;2023-04-15T17:53:10;7.70;99.90
14771;DHT22;7477;45.222;5.688;2023-04-15T17:56:29;7.80;99.90
14771;DHT22;7477;45.222;5.688;2023-04-15T17:59:49;7.70;99.90
14771;DHT22;7477;45.222;5.688;2023-04-15T18:03:09;7.80;99.90
14771;DHT22;7477;45.222;5.688;2023-04-15T18:06:28;7.70;99.90
14771;DHT22;7477;45.222;5.688;2023-04-15T18:09:47;7.70;99.90
14771;DHT22;7477;45.222;5.688;2023-04-15T18:13:08;7.80;99.90
14771;DHT22;7477;45.222;5.688;2023-04-15T18:16:27;7.80;99.90
14771;DHT22;7477;45.222;5.688;2023-04-15T18:19:46;7.70;99.90
14771;DHT22;7477;45.222;5.688;2023-04-15T18:23:06;7.80;99.90
14771;DHT22;7477;45.222;5.688;2023-04-15T18:26:27;7.80;99.90
14771;DHT22;7477;45.222;5.688;2023-04-15T18:29:46;7.80;99.90
14771;DHT22;7477;45.222;5.688;2023-04-15T18:33:05;7.80;99.90
14771;DHT22;7477;45.222;5.688;2023-04-15T18:36:24;7.70;99.90
14771;DHT22;7477;45.222;5.688;2023-04-15T18:39:44;7.70;99.90
14771;DHT22;7477;45.222;5.688;2023-04-15T18:43:03;7.70;99.90
14771;DHT22;7477;45.222;5.688;2023-04-15T18:46:22;7.70;99.90
14771;DHT22;7477;45.222;5.688;2023-04-15T18:49:42;7.70;99.90
14771;DHT22;7477;45.222;5.688;2023-04-15T18:53:02;7.70;99.90
14771;DHT22;7477;45.222;5.688;2023-04-15T18:56:21;8.00;99.90
14771;DHT22;7477;45.222;5.688;2023-04-15T18:59:40;7.80;99.90
14771;DHT22;7477;45.222;5.688;2023-04-15T19:02:59;7.70;99.90
14771;DHT22;7477;45.222;5.688;2023-04-15T19:06:19;7.70;99.90
14771;DHT22;7477;45.222;5.688;2023-04-15T19:09:38;7.70;99.90
14771;DHT22;7477;45.222;5.688;2023-04-15T19:12:58;7.70;99.90
14771;DHT22;7477;45.222;5.688;2023-04-15T19:16:17;7.70;99.90
14771;DHT22;7477;45.222;5.688;2023-04-15T19:19:37;7.70;99.90
14771;DHT22;7477;45.222;5.688;2023-04-15T19:22:56;7.70;99.90
14771;DHT22;7477;45.222;5.688;2023-04-15T19:26:15;7.70;99.90
14771;DHT22;7477;45.222;5.688;2023-04-15T19:29:34;7.70;99.90
14771;DHT22;7477;45.222;5.688;2023-04-15T19:32:53;7.70;99.90
14771;DHT22;7477;45.222;5.688;2023-04-15T19:36:13;7.70;99.90
14771;DHT22;7477;45.222;5.688;2023-04-15T19:39:32;7.70;99.90
14771;DHT22;7477;45.222;5.688;2023-04-15T19:42:51;7.70;99.90
14771;DHT22;7477;45.222;5.688;2023-04-15T19:46:11;7.70;99.90
14771;DHT22;7477;45.222;5.688;2023-04-15T19:49:31;7.70;99.90
14771;DHT22;7477;45.222;5.688;2023-04-15T19:52:51;7.70;99.90
14771;DHT22;7477;45.222;5.688;2023-04-15T19:56:10;7.80;99.90
14771;DHT22;7477;45.222;5.688;2023-04-15T19:59:29;7.70;99.90
14771;DHT22;7477;45.222;5.688;2023-04-15T20:02:48;7.70;99.90
14771;DHT22;7477;45.222;5.688;2023-04-15T20:06:07;7.70;99.90
14771;DHT22;7477;45.222;5.688;2023-04-15T20:09:26;7.70;99.90
14771;DHT22;7477;45.222;5.688;2023-04-15T20:12:46;7.80;99.90
14771;DHT22;7477;45.222;5.688;2023-04-15T20:16:05;7.80;99.90
14771;DHT22;7477;45.222;5.688;2023-04-15T20:19:25;7.80;99.90
14771;DHT22;7477;45.222;5.688;2023-04-15T20:22:44;7.70;99.90
14771;DHT22;7477;45.222;5.688;2023-04-15T20:26:03;7.80;99.90
14771;DHT22;7477;45.222;5.688;2023-04-15T20:29:22;7.80;99.90
14771;DHT22;7477;45.222;5.688;2023-04-15T20:32:42;7.80;99.90
14771;DHT22;7477;45.222;5.688;2023-04-15T20:36:02;7.80;99.90
14771;DHT22;7477;45.222;5.688;2023-04-15T20:39:21;7.80;99.90
14771;DHT22;7477;45.222;5.688;2023-04-15T20:42:40;7.80;99.90
14771;DHT22;7477;45.222;5.688;2023-04-15T20:46:01;7.80;99.90
14771;DHT22;7477;45.222;5.688;2023-04-15T20:49:20;7.70;99.90
14771;DHT22;7477;45.222;5.688;2023-04-15T20:52:40;7.80;99.90
14771;DHT22;7477;45.222;5.688;2023-04-15T20:55:59;7.80;99.90
14771;DHT22;7477;45.222;5.688;2023-04-15T20:59:18;7.80;99.90
14771;DHT22;7477;45.222;5.688;2023-04-15T21:02:37;7.70;99.90
14771;DHT22;7477;45.222;5.688;2023-04-15T21:05:57;7.70;99.90
14771;DHT22;7477;45.222;5.688;2023-04-15T21:09:16;7.70;99.90
14771;DHT22;7477;45.222;5.688;2023-04-15T21:12:36;7.70;99.90
14771;DHT22;7477;45.222;5.688;2023-04-15T21:15:59;7.70;99.90
14771;DHT22;7477;45.222;5.688;2023-04-15T21:19:18;7.70;99.90
14771;DHT22;7477;45.222;5.688;2023-04-15T21:22:37;7.70;99.90
14771;DHT22;7477;45.222;5.688;2023-04-15T21:25:57;7.70;99.90
14771;DHT22;7477;45.222;5.688;2023-04-15T21:29:16;7.70;99.90
14771;DHT22;7477;45.222;5.688;2023-04-15T21:32:35;7.70;99.90
14771;DHT22;7477;45.222;5.688;2023-04-15T21:35:54;7.70;99.90
14771;DHT22;7477;45.222;5.688;2023-04-15T21:39:14;7.70;99.90
14771;DHT22;7477;45.222;5.688;2023-04-15T21:42:33;7.70;99.90
14771;DHT22;7477;45.222;5.688;2023-04-15T21:45:52;7.70;99.90
14771;DHT22;7477;45.222;5.688;2023-04-15T21:49:11;7.70;99.90
14771;DHT22;7477;45.222;5.688;2023-04-15T21:52:31;7.70;99.90